Time;durP1;ratioP1;P1;durP2;ratioP2;P2;SDS_P1;SDS_P2;PMS_P1;PMS_P2;Temp;Humidity;BMP_temperature;BMP_pressure;BME280_temperature;BME280_humidity;BME280_pressure;Samples;Min_cycle;Max_cycle;Signal;HPM_P1;HPM_P2
2021/01/20 00:01:09;;;;;;;8.95;4.80;;;;;;;9.01;65.62;100243.91;5094175;28;20055;-77
2021/01/20 00:03:36;;;;;;;8.30;4.55;;;;;;;8.88;66.13;100242.84;5113120;28;20056;-76
2021/01/20 00:06:04;;;;;;;10.63;4.72;;;;;;;9.06;65.78;100230.03;5083792;28;20047;-78
2021/01/20 00:08:33;;;;;;;9.13;4.22;;;;;;;9.16;65.17;100226.19;5108886;28;20063;-78
2021/01/20 00:11:00;;;;;;;9.18;4.35;;;;;;;9.13;64.99;100217.44;5066372;28;20044;-75
2021/01/20 00:13:27;;;;;;;9.32;4.47;;;;;;;9.08;64.81;100220.34;5095034;28;20056;-75
2021/01/20 00:15:55;;;;;;;9.68;4.32;;;;;;;8.91;64.72;100213.94;5107963;28;20509;-77
2021/01/20 00:18:22;;;;;;;8.15;4.03;;;;;;;9.06;64.52;100205.31;5079691;28;20058;-77
2021/01/20 00:20:49;;;;;;;8.13;4.00;;;;;;;9.24;64.19;100200.72;5114968;28;20059;-75
2021/01/20 00:23:21;;;;;;;8.05;3.95;;;;;;;9.20;64.17;100202.47;5114666;28;20067;-77
2021/01/20 00:25:51;;;;;;;9.23;4.45;;;;;;;9.17;64.07;100203.88;5114721;28;20040;-77
2021/01/20 00:28:20;;;;;;;7.60;3.60;;;;;;;9.16;64.32;100193.22;5095667;28;20051;-77
2021/01/20 00:30:47;;;;;;;10.68;3.88;;;;;;;9.09;64.16;100186.25;5110565;28;20048;-78
2021/01/20 00:33:15;;;;;;;9.07;4.70;;;;;;;9.01;64.16;100178.75;5102261;28;20051;-78
2021/01/20 00:35:42;;;;;;;8.95;4.38;;;;;;;9.19;63.84;100181.63;5083201;28;20063;-78
2021/01/20 00:38:09;;;;;;;9.73;4.10;;;;;;;9.24;63.32;100186.97;5105407;28;20054;-78
2021/01/20 00:40:36;;;;;;;11.63;4.80;;;;;;;9.18;63.45;100175.31;5116667;28;20048;-78
2021/01/20 00:43:02;;;;;;;16.05;9.00;;;;;;;9.21;63.24;100171.09;5113566;28;20063;-77
2021/01/20 00:45:33;;;;;;;11.02;5.63;;;;;;;9.24;63.09;100165.78;5095552;28;20403;-77
2021/01/20 00:48:01;;;;;;;9.20;4.47;;;;;;;9.30;62.53;100161.75;5096391;28;20042;-76
2021/01/20 00:50:28;;;;;;;9.80;4.45;;;;;;;9.25;62.63;100163.84;5095949;28;20051;-76
2021/01/20 00:52:55;;;;;;;8.02;3.92;;;;;;;9.04;62.88;100144.38;5095804;28;20045;-76
2021/01/20 00:55:22;;;;;;;8.00;3.85;;;;;;;9.09;62.66;100144.22;5114122;28;20044;-78
2021/01/20 00:57:52;;;;;;;7.00;3.65;;;;;;;8.99;62.83;100133.53;5079432;28;20043;-77
2021/01/20 01:00:19;;;;;;;10.65;4.07;;;;;;;9.04;62.73;100125.97;5114286;28;20048;-77
2021/01/20 01:02:46;;;;;;;9.27;4.22;;;;;;;9.04;62.51;100123.22;5114927;28;20047;-79
2021/01/20 01:05:15;;;;;;;8.05;3.42;;;;;;;9.13;62.08;100127.91;5099872;28;20051;-79
2021/01/20 01:07:45;;;;;;;8.02;4.05;;;;;;;9.18;62.16;100120.34;5109267;28;20043;-78
2021/01/20 01:10:13;;;;;;;9.48;3.95;;;;;;;9.22;61.86;100117.78;5109659;28;20036;-77
2021/01/20 01:13:19;;;;;;;8.13;3.72;;;;;;;9.06;61.89;100115.47;5121716;28;20059;-77
2021/01/20 01:16:35;;;;;;;8.63;3.80;;;;;;;8.97;62.26;100106.38;5115461;27;20478;-75
2021/01/20 01:19:03;;;;;;;9.07;4.28;;;;;;;9.20;61.46;100120.03;5079538;28;20039;-76
2021/01/20 01:21:30;;;;;;;10.27;4.20;;;;;;;9.08;61.46;100109.66;5112779;28;20054;-76
2021/01/20 01:23:57;;;;;;;9.80;4.00;;;;;;;8.80;62.28;100111.78;5095631;28;20093;-77
2021/01/20 01:26:24;;;;;;;9.00;4.05;;;;;;;9.01;61.44;100115.59;5113649;28;20055;-76
2021/01/20 01:28:51;;;;;;;11.13;4.07;;;;;;;9.13;61.35;100104.00;5074602;28;20059;-75
2021/01/20 01:31:43;;;;;;;6.97;3.67;;;;;;;8.86;61.65;100106.97;5041188;28;20057;-77
2021/01/20 01:34:10;;;;;;;12.77;4.85;;;;;;;8.98;61.78;100120.91;5019706;28;20451;-78
2021/01/20 01:36:38;;;;;;;7.15;3.53;;;;;;;8.99;61.52;100112.38;5050416;28;20049;-77
2021/01/20 01:39:21;;;;;;;10.90;4.00;;;;;;;8.99;61.48;100122.53;5018898;28;20463;-76
2021/01/20 01:41:50;;;;;;;7.80;3.77;;;;;;;8.81;62.13;100116.16;5019287;28;20067;-77
2021/01/20 01:44:18;;;;;;;7.82;3.80;;;;;;;8.90;62.13;100111.53;5052019;28;20059;-77
2021/01/20 01:46:54;;;;;;;8.60;3.38;;;;;;;9.16;60.94;100102.56;5035868;28;20052;-77
2021/01/20 01:49:37;;;;;;;8.98;3.28;;;;;;;9.12;60.83;100101.59;5034676;28;20061;-77
2021/01/20 01:52:06;;;;;;;5.95;3.45;;;;;;;9.02;61.24;100097.19;5034892;28;20045;-78
2021/01/20 01:54:39;;;;;;;8.73;3.40;;;;;;;9.13;61.19;100096.56;5037120;28;20064;-75
2021/01/20 01:57:22;;;;;;;7.15;3.42;;;;;;;9.21;60.59;100099.66;5035418;28;20068;-75
2021/01/20 01:59:51;;;;;;;8.88;3.75;;;;;;;9.23;60.98;100106.47;5034863;28;20165;-76
2021/01/20 02:02:40;;;;;;;7.93;3.67;;;;;;;9.21;60.20;100100.47;5039366;28;20524;-77
2021/01/20 02:05:13;;;;;;;8.57;3.60;;;;;;;9.18;60.44;100097.56;5020597;28;20632;-77
2021/01/20 02:07:44;;;;;;;8.15;3.38;;;;;;;9.19;60.17;100105.47;5038074;28;20511;-77
2021/01/20 02:10:13;;;;;;;7.20;3.70;;;;;;;9.08;60.37;100095.91;5077004;28;20051;-75
2021/01/20 02:12:55;;;;;;;8.35;3.40;;;;;;;9.24;60.02;100085.28;5057324;28;20048;-75
2021/01/20 02:15:39;;;;;;;7.55;3.75;;;;;;;9.19;59.95;100088.19;5056304;28;20060;-76
2021/01/20 02:18:13;;;;;;;7.40;3.22;;;;;;;9.39;59.38;100084.84;5090367;28;20055;-75
2021/01/20 02:21:32;;;;;;;7.50;3.70;;;;;;;9.13;59.99;100087.53;5061068;28;20056;-77
2021/01/20 02:24:19;;;;;;;6.30;3.10;;;;;;;9.25;59.97;100070.41;5077651;28;20506;-79
2021/01/20 02:27:20;;;;;;;7.00;3.47;;;;;;;9.23;59.79;100075.41;5086270;28;20053;-78
2021/01/20 02:30:11;;;;;;;8.48;3.15;;;;;;;9.44;58.79;100069.00;5063318;28;20044;-77
2021/01/20 02:32:57;;;;;;;7.47;3.22;;;;;;;9.24;59.32;100077.06;5093981;28;20082;-77
2021/01/20 02:35:55;;;;;;;7.75;3.00;;;;;;;9.37;59.34;100071.41;5033334;28;20050;-76
2021/01/20 02:38:25;;;;;;;8.00;3.42;;;;;;;9.38;58.73;100070.28;5016266;28;20057;-77
2021/01/20 02:41:07;;;;;;;6.60;3.25;;;;;;;9.34;58.78;100063.00;5017443;28;20049;-76
2021/01/20 02:44:00;;;;;;;8.43;3.40;;;;;;;9.37;58.75;100057.66;5003672;28;20060;-78
2021/01/20 02:46:47;;;;;;;6.07;2.80;;;;;;;9.39;59.19;100041.66;5033898;28;20050;-75
2021/01/20 02:49:29;;;;;;;7.90;3.40;;;;;;;9.38;58.54;100040.03;5033653;28;20265;-75
2021/01/20 02:52:20;;;;;;;6.95;3.33;;;;;;;9.28;59.17;100054.09;5016484;28;20045;-77
2021/01/20 02:55:07;;;;;;;7.03;3.22;;;;;;;9.38;59.17;100050.25;5020587;28;20049;-75
2021/01/20 02:58:16;;;;;;;6.07;3.03;;;;;;;9.34;59.00;100041.00;5032362;28;20061;-77
2021/01/20 03:01:03;;;;;;;6.97;3.10;;;;;;;9.55;58.47;100029.06;5031993;28;20050;-76
2021/01/20 03:03:31;;;;;;;5.88;2.92;;;;;;;9.28;58.86;100026.63;5035499;28;20045;-77
2021/01/20 03:05:59;;;;;;;7.28;3.33;;;;;;;9.17;59.21;100013.50;5035925;28;20049;-75
2021/01/20 03:08:28;;;;;;;5.55;2.90;;;;;;;9.32;58.43;100013.03;5036999;28;20053;-76
2021/01/20 03:10:55;;;;;;;6.65;3.17;;;;;;;9.23;58.88;100017.72;5020189;28;20060;-75
2021/01/20 03:13:23;;;;;;;6.78;3.40;;;;;;;9.27;58.70;100003.03;5080073;28;20055;-75
2021/01/20 03:15:51;;;;;;;8.18;2.90;;;;;;;9.30;58.50;100005.13;5080939;28;20059;-75
2021/01/20 03:18:18;;;;;;;7.43;3.20;;;;;;;9.51;58.26;99994.28;5080096;28;20391;-77
2021/01/20 03:20:45;;;;;;;8.45;3.35;;;;;;;9.27;58.35;99997.53;5100007;28;20040;-77
2021/01/20 03:23:11;;;;;;;8.00;3.08;;;;;;;9.15;58.51;99980.88;5099353;28;20048;-75
2021/01/20 03:25:38;;;;;;;7.78;3.15;;;;;;;9.35;58.24;99971.97;5100942;28;20056;-76
2021/01/20 03:28:05;;;;;;;7.90;3.25;;;;;;;9.19;58.17;99973.59;5099533;28;20048;-75
2021/01/20 03:30:33;;;;;;;9.20;3.08;;;;;;;9.08;58.41;99970.34;5107438;28;20063;-75
2021/01/20 03:33:00;;;;;;;7.47;3.15;;;;;;;9.20;58.33;99963.41;5119093;28;20406;-75
2021/01/20 03:35:27;;;;;;;6.85;3.05;;;;;;;9.42;57.78;99957.75;5102084;28;20048;-76
2021/01/20 03:37:54;;;;;;;9.65;3.05;;;;;;;9.23;57.85;99952.59;5119745;28;20048;-75
2021/01/20 03:40:24;;;;;;;6.30;3.00;;;;;;;9.19;57.89;99931.59;5102238;28;20070;-75
2021/01/20 03:42:51;;;;;;;6.18;2.75;;;;;;;9.08;58.51;99931.09;5118092;28;20388;-75
2021/01/20 03:45:17;;;;;;;8.00;3.28;;;;;;;9.15;58.61;99945.16;5102504;28;20040;-76
2021/01/20 03:47:44;;;;;;;5.18;2.60;;;;;;;9.13;58.44;99919.94;5120616;28;20067;-75
2021/01/20 03:50:11;;;;;;;8.65;3.05;;;;;;;9.01;58.35;99939.78;5118741;28;20060;-74
2021/01/20 03:52:38;;;;;;;6.57;3.05;;;;;;;9.00;58.44;99940.13;5103394;28;20059;-74
2021/01/20 03:55:05;;;;;;;8.75;2.95;;;;;;;9.04;58.46;99952.09;5121799;28;20059;-75
2021/01/20 03:57:32;;;;;;;5.82;2.58;;;;;;;8.90;58.43;99934.94;5120413;28;20055;-74
2021/01/20 03:59:59;;;;;;;7.95;2.80;;;;;;;9.01;58.93;99933.50;5121879;28;20403;-74
2021/01/20 04:02:26;;;;;;;6.03;3.03;;;;;;;9.01;58.56;99919.78;5121396;28;20379;-76
2021/01/20 04:05:08;;;;;;;5.43;2.75;;;;;;;9.12;58.79;99912.03;5103788;28;20051;-76
2021/01/20 04:07:35;;;;;;;7.15;3.42;;;;;;;8.87;59.23;99910.88;5105431;28;20044;-75
2021/01/20 04:10:07;;;;;;;6.18;2.60;;;;;;;8.79;59.48;99908.91;5087788;28;20043;-74
2021/01/20 04:12:38;;;;;;;6.65;3.17;;;;;;;8.94;59.34;99895.53;5106440;28;20052;-77
2021/01/20 04:15:06;;;;;;;6.38;2.88;;;;;;;8.67;59.63;99898.56;5122903;28;20046;-76
2021/01/20 04:17:33;;;;;;;6.82;3.60;;;;;;;8.41;60.14;99889.47;5105031;28;20051;-76
2021/01/20 04:20:01;;;;;;;7.70;3.45;;;;;;;8.73;59.36;99886.31;5088390;28;20047;-76
2021/01/20 04:22:28;;;;;;;6.28;3.33;;;;;;;8.66;59.37;99887.91;5122506;28;20062;-76
2021/01/20 04:24:55;;;;;;;5.15;2.78;;;;;;;8.63;59.64;99886.59;5123564;28;20517;-77
2021/01/20 04:27:22;;;;;;;8.02;3.03;;;;;;;8.76;59.58;99873.88;5118907;28;20058;-77
2021/01/20 04:29:49;;;;;;;5.20;2.90;;;;;;;8.67;59.12;99879.34;5104133;28;20054;-78
2021/01/20 04:32:16;;;;;;;6.43;2.78;;;;;;;8.58;59.44;99872.22;5121949;28;20051;-77
2021/01/20 04:34:43;;;;;;;7.43;2.83;;;;;;;8.62;59.21;99886.94;5119649;28;20048;-77
2021/01/20 04:37:10;;;;;;;5.72;2.70;;;;;;;8.26;60.09;99862.50;5117242;28;20048;-75
2021/01/20 04:39:37;;;;;;;7.15;3.22;;;;;;;8.43;59.84;99875.44;5118817;28;20054;-76
2021/01/20 04:42:05;;;;;;;7.80;3.30;;;;;;;8.55;59.40;99870.13;5118596;28;20399;-76
2021/01/20 04:44:33;;;;;;;7.13;3.20;;;;;;;8.62;59.33;99867.72;5097817;28;20047;-77
2021/01/20 04:47:01;;;;;;;6.57;3.08;;;;;;;8.53;58.87;99853.97;5098248;28;20059;-77
2021/01/20 04:49:28;;;;;;;7.25;2.75;;;;;;;8.60;58.91;99837.84;5117506;28;20055;-78
2021/01/20 04:51:56;;;;;;;10.45;3.60;;;;;;;8.29;59.15;99819.88;5118231;28;20040;-75
2021/01/20 04:54:24;;;;;;;8.55;2.97;;;;;;;8.41;59.48;99820.06;5101264;28;20063;-76
2021/01/20 04:56:51;;;;;;;8.52;2.90;;;;;;;8.43;59.32;99807.66;5097106;28;20051;-77
2021/01/20 04:59:18;;;;;;;6.68;2.67;;;;;;;8.40;59.21;99802.81;5099605;28;20048;-76
2021/01/20 05:01:45;;;;;;;6.63;2.85;;;;;;;8.55;59.13;99821.53;5113834;28;20093;-75
2021/01/20 05:04:14;;;;;;;7.03;3.30;;;;;;;8.18;59.66;99849.50;5096563;28;20051;-76
2021/01/20 05:06:44;;;;;;;10.07;3.13;;;;;;;8.33;59.99;99827.16;5096848;28;20063;-75
2021/01/20 05:09:11;;;;;;;8.82;3.38;;;;;;;8.45;59.38;99821.84;5115686;28;20050;-76
2021/01/20 05:11:40;;;;;;;7.38;3.10;;;;;;;8.44;58.96;99806.50;5114024;28;20498;-75
2021/01/20 05:14:10;;;;;;;6.28;3.05;;;;;;;8.47;58.99;99832.50;5114348;28;20410;-76
2021/01/20 05:16:39;;;;;;;5.15;2.55;;;;;;;8.52;58.66;99841.41;5079980;28;20051;-76
2021/01/20 05:19:07;;;;;;;5.60;2.63;;;;;;;8.67;58.26;99827.19;5114255;28;20505;-76
2021/01/20 05:21:34;;;;;;;6.57;2.78;;;;;;;8.75;58.33;99825.59;5095681;28;20058;-76
2021/01/20 05:24:19;;;;;;;5.57;2.35;;;;;;;8.62;58.48;99824.63;5112407;28;20048;-76
2021/01/20 05:26:47;;;;;;;5.57;2.60;;;;;;;8.51;58.39;99815.06;5095227;28;20048;-78
2021/01/20 05:29:14;;;;;;;6.55;2.75;;;;;;;8.53;58.42;99806.50;5113079;28;20047;-75
2021/01/20 05:31:42;;;;;;;6.43;2.72;;;;;;;8.62;58.14;99807.31;5079185;28;20047;-77
2021/01/20 05:34:24;;;;;;;5.10;2.35;;;;;;;8.61;57.90;99798.28;5096671;28;20052;-78
2021/01/20 05:37:08;;;;;;;6.07;2.42;;;;;;;8.42;58.23;99800.53;5115555;28;20051;-74
2021/01/20 05:39:36;;;;;;;10.70;2.75;;;;;;;8.41;58.20;99796.19;5113497;28;20494;-75
2021/01/20 05:42:10;;;;;;;6.65;3.38;;;;;;;8.43;58.22;99780.22;5114179;28;20058;-77
2021/01/20 05:44:39;;;;;;;4.95;2.50;;;;;;;8.57;57.85;99791.84;5115475;28;20491;-75
2021/01/20 05:47:11;;;;;;;6.82;2.60;;;;;;;8.52;57.63;99808.47;5097809;28;20051;-76
2021/01/20 05:49:39;;;;;;;7.53;2.63;;;;;;;8.86;56.81;99805.72;5115697;28;20047;-76
2021/01/20 05:52:13;;;;;;;9.77;2.45;;;;;;;8.80;56.85;99801.50;5096064;28;20050;-76
2021/01/20 05:54:41;;;;;;;6.07;2.47;;;;;;;8.79;56.54;99799.09;5094644;28;20509;-76
2021/01/20 05:57:16;;;;;;;6.30;2.85;;;;;;;8.86;56.12;99777.44;5095328;28;20051;-76
2021/01/20 05:59:45;;;;;;;5.30;2.60;;;;;;;8.80;56.31;99765.81;5094898;28;20048;-75
2021/01/20 06:02:14;;;;;;;7.85;2.88;;;;;;;8.52;56.97;99778.28;5093963;28;20043;-76
2021/01/20 06:04:42;;;;;;;5.88;2.63;;;;;;;8.65;56.47;99776.47;5094587;28;20043;-76
2021/01/20 06:07:11;;;;;;;6.72;2.30;;;;;;;8.71;56.36;99780.69;5111947;28;20048;-75
2021/01/20 06:09:40;;;;;;;5.05;2.25;;;;;;;8.99;55.44;99777.28;5077989;28;20478;-76
2021/01/20 06:12:08;;;;;;;5.05;2.60;;;;;;;8.95;55.59;99783.72;5113234;28;20406;-76
2021/01/20 06:14:35;;;;;;;5.60;2.60;;;;;;;8.94;55.06;99788.41;5112376;28;20055;-76
2021/01/20 06:17:03;;;;;;;6.13;2.67;;;;;;;9.03;55.12;99775.47;5113011;28;20044;-76
2021/01/20 06:19:32;;;;;;;7.35;2.50;;;;;;;8.98;55.13;99774.84;5093784;28;20044;-75
2021/01/20 06:21:59;;;;;;;6.28;2.75;;;;;;;9.08;54.28;99769.81;5094057;28;20063;-77
2021/01/20 06:24:34;;;;;;;11.25;2.55;;;;;;;8.90;54.63;99762.75;5111792;28;20391;-76
2021/01/20 06:27:11;;;;;;;13.30;2.75;;;;;;;8.77;55.52;99755.47;5094207;28;20055;-77
2021/01/20 06:29:42;;;;;;;8.50;3.00;;;;;;;8.94;55.09;99744.47;5094317;28;20070;-76
2021/01/20 06:32:15;;;;;;;7.85;2.67;;;;;;;8.97;54.62;99732.03;5094027;28;20052;-78
2021/01/20 06:34:55;;;;;;;11.82;2.90;;;;;;;8.98;54.29;99734.44;5093749;28;20981;-77
2021/01/20 06:37:39;;;;;;;9.30;3.17;;;;;;;8.70;54.77;99738.69;5081756;28;20058;-76
2021/01/20 06:40:20;;;;;;;11.07;2.92;;;;;;;8.79;54.71;99742.25;5116096;28;20051;-76
2021/01/20 06:42:47;;;;;;;;;;;;;;;8.84;54.47;99742.06;5116072;28;20059;-76
2021/01/20 06:45:18;;;;;;;7.05;2.50;;;;;;;8.99;53.97;99744.31;5097709;28;19927;-81
2021/01/20 06:48:06;;;;;;;8.60;3.00;;;;;;;9.05;53.55;99733.94;5115709;28;20048;-73
2021/01/20 06:51:05;;;;;;;17.42;3.65;;;;;;;9.10;53.16;99737.31;5097372;28;20494;-77
2021/01/20 06:54:11;;;;;;;7.20;2.88;;;;;;;9.05;53.12;99737.50;5097684;28;20047;-76
2021/01/20 06:57:22;;;;;;;6.82;2.65;;;;;;;9.12;53.23;99727.97;5116350;28;20066;-76
2021/01/20 07:00:09;;;;;;;11.27;2.65;;;;;;;9.08;52.98;99720.38;5116110;28;20055;-76
2021/01/20 07:02:36;;;;;;;7.57;2.53;;;;;;;9.16;53.18;99721.47;5115333;28;20450;-74
2021/01/20 07:05:05;;;;;;;8.68;2.55;;;;;;;9.17;52.63;99736.03;5097563;28;20055;-77
2021/01/20 07:07:53;;;;;;;5.55;2.38;;;;;;;9.21;52.54;99721.28;5113638;28;20058;-76
2021/01/20 07:10:22;;;;;;;12.95;2.95;;;;;;;9.21;52.80;99723.22;5097327;28;20058;-77
2021/01/20 07:13:10;;;;;;;6.78;2.83;;;;;;;9.24;52.56;99717.88;5116114;28;20410;-76
2021/01/20 07:15:37;;;;;;;6.53;3.00;;;;;;;9.24;52.18;99709.66;5097693;28;20043;-75
2021/01/20 07:18:08;;;;;;;8.32;2.70;;;;;;;9.22;52.45;99716.63;5100493;28;20052;-79
2021/01/20 07:20:35;;;;;;;7.85;2.70;;;;;;;9.04;52.46;99719.44;5087019;28;20051;-74
2021/01/20 07:23:03;;;;;;;12.05;3.15;;;;;;;9.22;52.53;99716.63;5091966;28;20044;-74
2021/01/20 07:25:30;;;;;;;15.60;3.00;;;;;;;8.99;53.17;99725.09;5072301;28;20044;-73
2021/01/20 07:27:57;;;;;;;12.20;2.80;;;;;;;8.99;53.19;99727.03;5110488;28;20055;-75
2021/01/20 07:30:24;;;;;;;8.90;2.70;;;;;;;9.06;53.02;99728.16;5094937;28;20048;-77
2021/01/20 07:32:52;;;;;;;9.98;2.75;;;;;;;9.39;52.10;99736.59;5095973;28;20503;-73
2021/01/20 07:35:21;;;;;;;7.65;2.90;;;;;;;9.45;51.66;99729.78;5078667;28;20522;-73
2021/01/20 07:38:05;;;;;;;5.47;2.65;;;;;;;9.50;51.67;99734.28;5089177;28;20048;-77
2021/01/20 07:40:37;;;;;;;7.28;2.53;;;;;;;9.38;51.84;99728.69;5068460;28;20059;-77
2021/01/20 07:43:04;;;;;;;13.75;2.80;;;;;;;9.28;52.52;99720.78;5087172;28;20048;-81
2021/01/20 07:45:35;;;;;;;6.55;2.65;;;;;;;9.35;51.66;99718.34;5078249;28;20067;-79
2021/01/20 07:48:04;;;;;;;13.32;3.15;;;;;;;9.52;51.07;99710.81;5093881;28;20055;-80
2021/01/20 07:50:42;;;;;;;5.97;2.60;;;;;;;9.52;51.23;99704.53;5092572;28;20044;-78
2021/01/20 07:53:22;;;;;;;6.93;2.42;;;;;;;9.51;51.42;99697.41;5075326;28;20055;-80
2021/01/20 07:55:53;;;;;;;7.72;2.90;;;;;;;9.57;51.06;99707.88;5054702;28;20055;-78
2021/01/20 07:58:29;;;;;;;11.05;3.13;;;;;;;9.64;51.41;99707.38;5080047;28;20418;-79
2021/01/20 08:00:57;;;;;;;13.90;4.28;;;;;;;9.46;51.15;99695.66;5071989;28;20052;-78
2021/01/20 08:03:35;;;;;;;11.93;4.50;;;;;;;9.57;50.85;99696.88;5092493;28;20051;-83
2021/01/20 08:06:10;;;;;;;6.38;2.90;;;;;;;9.72;50.53;99687.28;5081098;28;20040;-83
2021/01/20 08:08:57;;;;;;;9.45;3.25;;;;;;;9.65;50.78;99692.50;5074067;28;20067;-80
2021/01/20 08:11:28;;;;;;;6.13;2.80;;;;;;;9.64;50.59;99693.63;5087885;28;20048;-77
2021/01/20 08:13:56;;;;;;;8.77;3.00;;;;;;;9.53;50.63;99690.47;5075027;28;20052;-76
2021/01/20 08:16:23;;;;;;;10.88;3.05;;;;;;;9.52;51.10;99685.28;5075207;28;20044;-76
2021/01/20 08:18:52;;;;;;;5.53;2.53;;;;;;;9.52;51.01;99682.53;5059373;28;20055;-77
2021/01/20 08:21:19;;;;;;;10.63;3.10;;;;;;;9.65;50.86;99679.56;5055881;28;20068;-76
2021/01/20 08:23:57;;;;;;;7.55;3.00;;;;;;;9.72;50.78;99673.53;5039348;28;20055;-77
2021/01/20 08:26:25;;;;;;;25.02;4.47;;;;;;;9.68;50.57;99686.31;5040103;28;20056;-81
2021/01/20 08:29:12;;;;;;;29.45;6.47;;;;;;;9.76;50.83;99680.75;5099244;28;20059;-80
2021/01/20 08:31:40;;;;;;;31.00;11.00;;;;;;;9.74;50.44;99672.06;5115893;28;20055;-79
2021/01/20 08:34:21;;;;;;;21.55;6.28;;;;;;;9.80;50.14;99670.72;5116563;28;20054;-77
2021/01/20 08:37:04;;;;;;;12.23;3.92;;;;;;;9.80;50.39;99659.72;5114484;28;20403;-81
2021/01/20 08:39:38;;;;;;;11.27;3.95;;;;;;;9.73;50.28;99664.94;5097872;28;20052;-82
2021/01/20 08:42:11;;;;;;;18.33;3.90;;;;;;;9.73;50.13;99653.13;5065079;28;20048;-84
2021/01/20 08:44:38;;;;;;;19.55;3.70;;;;;;;9.61;50.46;99651.09;5059957;28;20052;-82
2021/01/20 08:47:08;;;;;;;7.45;3.17;;;;;;;9.61;50.26;99656.59;5119113;28;20058;-78
2021/01/20 08:49:36;;;;;;;9.93;3.35;;;;;;;9.63;50.08;99653.53;5124951;28;20043;-79
2021/01/20 08:52:03;;;;;;;11.90;3.88;;;;;;;9.59;50.19;99645.13;5084309;28;20051;-77
2021/01/20 08:54:31;;;;;;;7.25;2.92;;;;;;;9.63;50.25;99642.53;5118498;28;20040;-81
2021/01/20 08:57:17;;;;;;;9.68;3.30;;;;;;;9.68;49.82;99645.88;5113412;28;20057;-80
2021/01/20 08:59:55;;;;;;;6.97;3.08;;;;;;;9.83;49.51;99644.50;5112992;28;20054;-80
2021/01/20 09:02:23;;;;;;;11.93;3.05;;;;;;;9.97;49.27;99642.31;5113849;28;20046;-80
2021/01/20 09:04:51;;;;;;;8.98;2.90;;;;;;;9.92;49.25;99642.50;5114347;28;20376;-79
2021/01/20 09:07:20;;;;;;;11.20;3.55;;;;;;;9.91;49.16;99636.19;5113617;28;20054;-82
2021/01/20 09:09:50;;;;;;;6.88;3.20;;;;;;;9.96;49.27;99619.47;5100571;28;20418;-78
2021/01/20 09:12:20;;;;;;;8.82;3.47;;;;;;;9.97;49.20;99623.81;5112943;28;20043;-76
2021/01/20 09:15:00;;;;;;;11.87;3.67;;;;;;;10.01;48.96;99621.22;5094599;28;20475;-79
2021/01/20 09:17:27;;;;;;;12.23;3.20;;;;;;;9.97;48.81;99623.81;5113999;28;20367;-75
2021/01/20 09:19:54;;;;;;;6.63;2.85;;;;;;;9.80;49.20;99615.72;5112164;28;20039;-80
2021/01/20 09:22:20;;;;;;;6.35;3.10;;;;;;;10.13;48.89;99619.34;5113253;28;20040;-78
2021/01/20 09:24:48;;;;;;;10.70;3.15;;;;;;;10.05;48.91;99608.41;5095125;28;20036;-80
2021/01/20 09:27:18;;;;;;;22.45;3.15;;;;;;;9.90;49.16;99606.28;5114729;28;20044;-78
2021/01/20 09:29:45;;;;;;;8.32;3.10;;;;;;;10.00;49.35;99605.84;5095061;28;20483;-79
2021/01/20 09:32:12;;;;;;;11.07;3.58;;;;;;;10.00;49.56;99601.16;5097475;28;20040;-78
2021/01/20 09:34:38;;;;;;;9.93;3.50;;;;;;;9.91;49.46;99605.94;5077894;28;20044;-79
2021/01/20 09:37:05;;;;;;;13.98;3.50;;;;;;;10.18;49.41;99599.09;5096429;28;20487;-81
2021/01/20 09:39:33;;;;;;;12.80;3.58;;;;;;;10.26;49.04;99592.69;5076275;28;20488;-80
2021/01/20 09:42:00;;;;;;;8.63;3.40;;;;;;;10.09;49.23;99592.88;5072494;28;20037;-78
2021/01/20 09:44:27;;;;;;;12.20;3.63;;;;;;;10.33;48.79;99578.38;5062653;28;20067;-78
2021/01/20 09:46:55;;;;;;;8.55;3.55;;;;;;;10.09;49.01;99579.13;5083601;28;20054;-77
2021/01/20 09:49:22;;;;;;;10.30;3.35;;;;;;;10.23;48.97;99574.13;5094636;28;20051;-78
2021/01/20 09:51:49;;;;;;;11.55;4.05;;;;;;;10.15;49.10;99566.75;5084744;28;20044;-79
2021/01/20 09:54:17;;;;;;;8.98;3.60;;;;;;;9.81;49.89;99567.03;5055720;28;20053;-81
2021/01/20 09:56:44;;;;;;;11.57;3.40;;;;;;;9.88;49.99;99567.28;5074238;28;20057;-79
2021/01/20 09:59:11;;;;;;;8.73;3.00;;;;;;;9.91;49.85;99559.16;5063038;28;20044;-74
2021/01/20 10:01:38;;;;;;;12.88;3.35;;;;;;;9.93;49.66;99559.66;5088924;28;20052;-75
2021/01/20 10:04:08;;;;;;;8.35;2.83;;;;;;;10.13;49.25;99555.25;5089978;28;20047;-77
2021/01/20 10:06:36;;;;;;;9.15;3.20;;;;;;;10.14;49.41;99563.22;5080704;28;20207;-75
2021/01/20 10:09:04;;;;;;;7.95;3.00;;;;;;;10.12;49.87;99556.41;5063340;28;20037;-78
2021/01/20 10:11:32;;;;;;;8.40;3.38;;;;;;;10.22;50.00;99558.75;5075292;28;20059;-77
2021/01/20 10:13:59;;;;;;;8.70;3.40;;;;;;;10.35;49.41;99552.16;5091794;28;20041;-75
2021/01/20 10:16:26;;;;;;;8.80;2.90;;;;;;;10.23;49.87;99547.38;5067701;28;20055;-78
2021/01/20 10:18:53;;;;;;;7.13;3.40;;;;;;;10.18;50.05;99547.59;5095519;28;20052;-75
2021/01/20 10:21:20;;;;;;;8.75;3.30;;;;;;;10.18;49.69;99544.06;5070236;28;20044;-74
2021/01/20 10:23:58;;;;;;;7.85;3.45;;;;;;;10.09;50.25;99526.84;5063415;28;20047;-75
2021/01/20 10:26:26;;;;;;;7.43;3.13;;;;;;;10.23;49.57;99532.03;5073444;28;20040;-75
2021/01/20 10:28:53;;;;;;;9.30;3.65;;;;;;;10.28;49.29;99518.88;5110164;28;20055;-74
2021/01/20 10:31:21;;;;;;;8.60;3.22;;;;;;;10.23;49.44;99516.34;5097754;28;20048;-74
2021/01/20 10:33:56;;;;;;;10.13;3.10;;;;;;;10.16;49.81;99519.63;5107827;28;20391;-76
2021/01/20 10:36:23;;;;;;;12.88;3.05;;;;;;;10.27;49.55;99514.50;5116914;28;20058;-73
2021/01/20 10:38:50;;;;;;;8.68;3.47;;;;;;;10.27;49.58;99510.97;5110312;28;20430;-75
2021/01/20 10:41:21;;;;;;;9.32;3.38;;;;;;;10.33;50.06;99501.31;5115198;28;20059;-74
2021/01/20 10:43:51;;;;;;;9.40;3.13;;;;;;;10.48;50.09;99490.44;5115808;28;20406;-80
2021/01/20 10:46:25;;;;;;;8.20;3.13;;;;;;;10.37;49.52;99489.31;5083085;28;20422;-77
2021/01/20 10:48:57;;;;;;;7.55;3.15;;;;;;;10.42;50.14;99491.84;5065566;28;20394;-74
2021/01/20 10:51:25;;;;;;;11.35;3.80;;;;;;;10.72;49.13;99487.69;5116922;28;20044;-77
2021/01/20 10:53:56;;;;;;;14.48;3.47;;;;;;;10.74;48.40;99477.16;5099592;28;20438;-75
2021/01/20 10:56:24;;;;;;;10.32;3.00;;;;;;;10.83;47.99;99475.09;5116655;28;20048;-74
2021/01/20 10:58:51;;;;;;;9.30;3.20;;;;;;;10.94;48.26;99464.41;5098459;28;20048;-73
2021/01/20 11:01:18;;;;;;;9.38;3.40;;;;;;;10.99;47.90;99456.72;5114880;28;20398;-75
2021/01/20 11:03:47;;;;;;;9.38;4.00;;;;;;;11.05;47.86;99460.03;5116316;28;20055;-80
2021/01/20 11:06:14;;;;;;;13.25;6.10;;;;;;;11.22;47.91;99446.81;5114978;28;20048;-75
2021/01/20 11:08:45;;;;;;;11.70;5.07;;;;;;;11.05;47.48;99441.53;5115989;28;20066;-75
2021/01/20 11:11:12;;;;;;;9.40;3.80;;;;;;;11.19;47.28;99422.66;5080364;28;20055;-77
2021/01/20 11:13:47;;;;;;;12.93;3.67;;;;;;;11.16;47.33;99423.38;5115799;28;20047;-75
2021/01/20 11:16:18;;;;;;;9.02;3.83;;;;;;;11.17;47.14;99415.91;5097889;28;20044;-75
2021/01/20 11:18:45;;;;;;;8.25;3.40;;;;;;;11.21;47.29;99411.28;5098275;28;20043;-77
2021/01/20 11:21:14;;;;;;;9.38;3.63;;;;;;;11.27;46.37;99416.25;5110685;28;20036;-76
2021/01/20 11:23:43;;;;;;;9.23;3.55;;;;;;;11.46;46.73;99406.50;5113482;28;20043;-76
2021/01/20 11:26:11;;;;;;;9.10;2.90;;;;;;;11.64;46.44;99413.34;5109150;28;20043;-78
2021/01/20 11:28:38;;;;;;;10.43;3.10;;;;;;;11.58;46.26;99409.22;5114811;28;20056;-77
2021/01/20 11:31:05;;;;;;;7.55;3.13;;;;;;;11.76;46.42;99400.31;5113739;28;20048;-76
2021/01/20 11:33:37;;;;;;;5.72;2.63;;;;;;;11.78;45.40;99408.22;5115841;28;20043;-78
2021/01/20 11:36:06;;;;;;;7.82;3.00;;;;;;;11.96;45.17;99398.47;5115884;28;20043;-78
2021/01/20 11:38:34;;;;;;;7.93;2.70;;;;;;;11.95;45.60;99394.91;5097983;28;20403;-78
2021/01/20 11:41:02;;;;;;;10.52;3.00;;;;;;;12.09;45.06;99383.44;5100579;28;20039;-77
2021/01/20 11:43:29;;;;;;;5.25;2.67;;;;;;;12.15;44.61;99384.78;5122258;28;20043;-76
2021/01/20 11:45:56;;;;;;;11.77;5.00;;;;;;;12.23;44.80;99375.50;5118943;28;20502;-78
2021/01/20 11:48:29;;;;;;;6.05;2.90;;;;;;;12.25;45.10;99378.72;5099630;28;20047;-77
2021/01/20 11:50:56;;;;;;;11.02;2.92;;;;;;;12.23;44.17;99375.50;5100247;28;20052;-77
2021/01/20 11:53:23;;;;;;;6.88;2.38;;;;;;;12.27;44.17;99368.13;5116526;28;20056;-73
2021/01/20 11:55:51;;;;;;;8.95;2.75;;;;;;;12.64;43.48;99366.63;5097358;28;20044;-76
2021/01/20 11:58:19;;;;;;;7.95;3.22;;;;;;;12.74;43.16;99365.28;5092565;28;20052;-73